Time;durP1;ratioP1;P1;durP2;ratioP2;P2;SDS_P1;SDS_P2;PMS_P1;PMS_P2;Temp;Humidity;BMP_temperature;BMP_pressure;BME280_temperature;BME280_humidity;BME280_pressure;Samples;Min_cycle;Max_cycle;Signal;HPM_P1;HPM_P2
2021/04/03 00:00:31;;;;;;;59.20;32.80;;;;;;;4.33;45.31;98583.36;114459;1206;103149;-73
2021/04/03 00:03:18;;;;;;;64.17;33.37;;;;;;;4.35;45.71;98578.86;114528;1206;103059;-72
2021/04/03 00:05:45;;;;;;;59.50;31.50;;;;;;;4.32;46.03;98574.63;114500;1206;103095;-72
2021/04/03 00:08:13;;;;;;;62.40;34.00;;;;;;;4.32;45.89;98571.13;114380;1206;103052;-73
2021/04/03 00:10:44;;;;;;;62.90;31.90;;;;;;;4.36;46.03;98577.09;114715;1206;103172;-73
2021/04/03 00:13:13;;;;;;;59.20;31.90;;;;;;;4.39;46.06;98575.13;114401;1206;103172;-74
2021/04/03 00:15:40;;;;;;;62.00;31.50;;;;;;;4.42;45.38;98567.05;114505;1206;103085;-74
2021/04/03 00:18:08;;;;;;;57.70;30.60;;;;;;;4.44;45.68;98566.98;114375;1206;103581;-72
2021/04/03 00:20:37;;;;;;;48.35;25.25;;;;;;;4.46;46.05;98565.12;114449;1206;103210;-72
2021/04/03 00:23:04;;;;;;;43.70;21.80;;;;;;;4.49;45.83;98562.28;114458;1206;103171;-73
2021/04/03 00:25:32;;;;;;;49.20;24.70;;;;;;;4.52;46.03;98563.91;114497;1206;103079;-73
2021/04/03 00:27:59;;;;;;;48.00;22.80;;;;;;;4.55;45.81;98569.02;114438;1206;103204;-72
2021/04/03 00:30:26;;;;;;;45.60;22.10;;;;;;;4.58;46.22;98566.21;114414;1206;103108;-73
2021/04/03 00:32:57;;;;;;;45.77;23.23;;;;;;;4.61;46.01;98569.51;114472;1206;103226;-73
2021/04/03 00:35:30;;;;;;;44.20;22.70;;;;;;;4.65;46.49;98569.34;114529;1206;103261;-73
2021/04/03 00:37:58;;;;;;;41.48;20.68;;;;;;;4.66;45.79;98550.83;114446;1206;103056;-73
2021/04/03 00:40:29;;;;;;;44.50;23.20;;;;;;;4.68;46.63;98553.36;114940;1206;103063;-72
2021/04/03 00:42:59;;;;;;;48.55;24.90;;;;;;;4.72;46.03;98560.98;114404;1206;103092;-72
2021/04/03 00:45:26;;;;;;;43.90;23.60;;;;;;;4.73;46.56;98560.05;114487;1206;103091;-73
2021/04/03 00:47:55;;;;;;;47.75;24.65;;;;;;;4.72;46.17;98570.70;114474;1205;103542;-72
2021/04/03 00:50:27;;;;;;;45.85;23.35;;;;;;;4.72;46.14;98554.89;114448;1205;103707;-72
2021/04/03 00:52:55;;;;;;;46.90;22.60;;;;;;;4.73;46.68;98564.48;114610;1205;103552;-72
2021/04/03 00:55:22;;;;;;;43.90;21.90;;;;;;;4.74;46.16;98564.39;114473;1206;103213;-73
2021/04/03 00:57:50;;;;;;;43.75;20.95;;;;;;;4.75;46.21;98560.81;114463;1205;104784;-73
2021/04/03 01:00:18;;;;;;;43.90;22.50;;;;;;;4.76;46.21;98554.61;114426;1206;103208;-73
2021/04/03 01:02:45;;;;;;;43.40;22.40;;;;;;;4.77;46.31;98551.05;114461;1206;103079;-72
2021/04/03 01:05:17;;;;;;;41.40;21.25;;;;;;;4.78;46.65;98546.64;114409;1206;103082;-72
2021/04/03 01:07:48;;;;;;;44.67;21.90;;;;;;;4.79;46.51;98544.83;114382;1206;103098;-72
2021/04/03 01:10:18;;;;;;;44.20;21.20;;;;;;;4.79;46.44;98544.83;114421;1207;103054;-71
2021/04/03 01:13:04;;;;;;;42.00;21.80;;;;;;;4.80;46.36;98546.53;114497;1206;103131;-72
2021/04/03 01:16:12;;;;;;;39.50;19.10;;;;;;;4.76;46.36;98541.44;114488;1206;103134;-72
2021/04/03 01:19:17;;;;;;;37.90;18.80;;;;;;;4.76;46.40;98532.70;114232;1206;103293;-72
2021/04/03 01:22:04;;;;;;;42.70;21.10;;;;;;;4.79;46.81;98535.16;114413;1206;103201;-71
2021/04/03 01:24:52;;;;;;;41.25;20.10;;;;;;;4.83;46.54;98541.09;114424;1206;103080;-73
2021/04/03 01:27:22;;;;;;;37.80;19.40;;;;;;;4.84;46.41;98534.88;114393;1206;103089;-71
2021/04/03 01:30:08;;;;;;;37.37;19.87;;;;;;;4.85;46.56;98533.95;114463;1205;103229;-72
2021/04/03 01:32:57;;;;;;;41.55;20.00;;;;;;;4.87;47.20;98537.34;114467;1206;103133;-71
2021/04/03 01:35:29;;;;;;;38.05;19.50;;;;;;;4.88;46.78;98541.67;114399;1206;103239;-72
2021/04/03 01:38:02;;;;;;;39.23;19.57;;;;;;;4.88;47.38;98533.77;114490;1206;103089;-72
2021/04/03 01:40:31;;;;;;;37.73;19.67;;;;;;;4.89;47.43;98533.67;114541;1206;103615;-72
2021/04/03 01:43:14;;;;;;;47.75;20.05;;;;;;;4.89;47.23;98531.03;114511;1206;103113;-72
2021/04/03 01:45:42;;;;;;;39.35;19.55;;;;;;;4.87;46.97;98522.40;114530;1206;103203;-73
2021/04/03 01:48:14;;;;;;;39.20;21.10;;;;;;;4.88;47.49;98512.69;114516;1206;103197;-74
2021/04/03 01:50:44;;;;;;;41.35;19.65;;;;;;;4.79;46.90;98516.72;114407;1206;103053;-71
2021/04/03 01:53:13;;;;;;;39.40;20.05;;;;;;;4.77;46.98;98513.32;114478;1206;103191;-71
2021/04/03 01:55:41;;;;;;;39.60;19.90;;;;;;;4.76;47.64;98511.63;114414;1205;103172;-71
2021/04/03 01:58:10;;;;;;;39.10;20.10;;;;;;;4.77;47.19;98515.95;114557;1206;103095;-72
2021/04/03 02:00:38;;;;;;;39.15;19.55;;;;;;;4.76;47.18;98511.63;114437;1206;103197;-72
2021/04/03 02:03:06;;;;;;;41.10;21.05;;;;;;;4.76;47.47;98525.63;114429;1206;103056;-71
2021/04/03 02:05:35;;;;;;;40.10;19.50;;;;;;;4.79;47.27;98518.48;114517;1206;103612;-74
2021/04/03 02:08:03;;;;;;;39.60;18.85;;;;;;;4.79;47.23;98510.58;114531;1206;103201;-70
2021/04/03 02:10:34;;;;;;;36.70;17.50;;;;;;;4.81;47.16;98511.34;114442;1206;103086;-70
2021/04/03 02:13:05;;;;;;;41.13;19.97;;;;;;;4.81;47.82;98508.70;114535;1206;103159;-72
2021/04/03 02:15:33;;;;;;;35.25;18.80;;;;;;;4.82;47.78;98498.09;114518;1206;103155;-71
2021/04/03 02:18:05;;;;;;;38.25;19.00;;;;;;;4.84;47.53;98495.36;114514;1206;103086;-73
2021/04/03 02:20:33;;;;;;;37.90;17.57;;;;;;;4.76;47.08;98495.81;114390;1205;103089;-73
2021/04/03 02:23:01;;;;;;;54.80;26.77;;;;;;;4.37;47.03;98487.46;114476;1206;103053;-73
2021/04/03 02:25:28;;;;;;;62.70;29.30;;;;;;;4.01;46.95;98486.82;114473;1206;103098;-73
2021/04/03 02:27:55;;;;;;;58.70;32.15;;;;;;;3.76;47.72;98496.96;114383;1205;103156;-73
2021/04/03 02:30:23;;;;;;;66.25;36.30;;;;;;;3.70;47.71;98498.98;114472;1206;103162;-73
2021/04/03 02:32:56;;;;;;;70.15;35.40;;;;;;;3.74;47.62;98499.69;114815;1206;103082;-73
2021/04/03 02:35:25;;;;;;;66.80;35.70;;;;;;;3.79;47.87;98505.56;114466;1205;103056;-73
2021/04/03 02:37:57;;;;;;;71.95;37.70;;;;;;;3.84;47.60;98503.53;114490;1206;103268;-73
2021/04/03 02:40:27;;;;;;;67.70;35.80;;;;;;;3.87;48.63;98492.81;114363;1205;103127;-74
2021/04/03 02:42:54;;;;;;;66.25;32.75;;;;;;;3.93;48.58;98489.02;114484;1205;103022;-73
2021/04/03 02:45:25;;;;;;;63.40;32.50;;;;;;;3.95;48.07;98488.91;114497;1206;103088;-74
2021/04/03 02:48:00;;;;;;;61.80;31.80;;;;;;;3.98;48.24;98486.12;114441;1205;103155;-73
2021/04/03 02:50:35;;;;;;;51.20;26.65;;;;;;;3.98;48.91;98478.22;114443;1206;102899;-74
2021/04/03 02:53:05;;;;;;;48.13;23.10;;;;;;;3.98;49.02;98480.86;114463;1206;103507;-73
2021/04/03 02:55:33;;;;;;;49.40;22.95;;;;;;;3.99;47.99;98482.55;114436;1205;103549;-72
2021/04/03 02:58:01;;;;;;;42.10;20.50;;;;;;;3.97;48.37;98476.53;114477;1206;103134;-72
2021/04/03 03:00:29;;;;;;;43.10;21.30;;;;;;;3.95;48.03;98473.99;114382;1206;103143;-72
2021/04/03 03:02:59;;;;;;;39.50;18.50;;;;;;;3.90;48.15;98470.77;114493;1206;103119;-72
2021/04/03 03:05:27;;;;;;;39.83;19.47;;;;;;;3.90;48.71;98470.77;114417;1206;103066;-73
2021/04/03 03:07:55;;;;;;;39.65;18.40;;;;;;;3.90;48.21;98465.50;114468;1205;103136;-73
2021/04/03 03:10:22;;;;;;;42.40;20.80;;;;;;;3.87;49.13;98460.41;114475;1206;103193;-73
2021/04/03 03:12:53;;;;;;;40.30;19.10;;;;;;;3.84;48.22;98463.20;114424;1206;103184;-74
2021/04/03 03:15:28;;;;;;;39.75;19.60;;;;;;;3.81;48.34;98463.37;114417;1206;103206;-74
2021/04/03 03:17:56;;;;;;;37.30;18.50;;;;;;;3.78;48.48;98466.16;114487;1206;103172;-73
2021/04/03 03:20:24;;;;;;;42.05;20.45;;;;;;;3.78;48.77;98468.80;114557;1205;103165;-73
2021/04/03 03:22:52;;;;;;;47.10;20.50;;;;;;;3.70;48.36;98466.59;114515;1206;103078;-73
2021/04/03 03:25:19;;;;;;;47.90;21.10;;;;;;;3.60;48.79;98468.88;114531;1206;103576;-74
2021/04/03 03:27:48;;;;;;;42.80;21.60;;;;;;;3.58;48.63;98462.84;114525;1205;103191;-74
2021/04/03 03:30:18;;;;;;;36.70;17.80;;;;;;;3.41;48.48;98458.49;114512;1205;103536;-73
2021/04/03 03:32:46;;;;;;;42.40;20.10;;;;;;;3.25;48.67;98461.92;114411;1205;103063;-74
2021/04/03 03:35:15;;;;;;;36.90;17.40;;;;;;;3.27;49.27;98465.32;114436;1205;103164;-72
2021/04/03 03:37:45;;;;;;;37.70;19.20;;;;;;;3.28;49.20;98463.52;114468;1206;103175;-72
2021/04/03 03:40:14;;;;;;;38.80;19.55;;;;;;;3.30;48.82;98459.04;114537;1206;103204;-71
2021/04/03 03:42:42;;;;;;;39.10;18.45;;;;;;;3.30;48.67;98456.41;114508;1206;103287;-72
2021/04/03 03:45:11;;;;;;;47.50;21.50;;;;;;;3.30;49.43;98455.58;114551;1206;103084;-72
2021/04/03 03:47:39;;;;;;;46.05;20.90;;;;;;;3.29;49.03;98457.34;114506;1206;103133;-73
2021/04/03 03:50:09;;;;;;;38.53;18.67;;;;;;;3.28;49.55;98459.13;114506;1206;103161;-73
2021/04/03 03:52:36;;;;;;;46.27;23.13;;;;;;;3.25;48.88;98463.72;114484;1206;103267;-74
2021/04/03 03:55:04;;;;;;;48.20;20.95;;;;;;;3.20;49.19;98466.56;114413;1206;103051;-74
2021/04/03 03:57:31;;;;;;;41.65;21.15;;;;;;;3.18;49.74;98468.42;114451;1206;103111;-73
2021/04/03 03:59:58;;;;;;;43.15;21.20;;;;;;;3.16;49.42;98469.44;114403;1206;103079;-72
2021/04/03 04:02:26;;;;;;;41.10;20.20;;;;;;;3.12;49.09;98468.73;114536;1206;103079;-71
2021/04/03 04:04:53;;;;;;;47.20;24.60;;;;;;;3.07;49.21;98468.12;114461;1206;103140;-73
2021/04/03 04:07:19;;;;;;;51.35;25.20;;;;;;;3.03;49.07;98463.98;114473;1206;103573;-72
2021/04/03 04:09:46;;;;;;;48.60;24.10;;;;;;;3.01;49.59;98463.20;114486;1206;103126;-75
2021/04/03 04:12:13;;;;;;;44.80;23.30;;;;;;;2.97;49.68;98459.87;114508;1206;103078;-75
2021/04/03 04:14:40;;;;;;;50.80;25.00;;;;;;;2.94;49.48;98463.52;114381;1205;103065;-76
2021/04/03 04:17:07;;;;;;;46.15;24.00;;;;;;;2.92;49.88;98460.12;114339;1206;103060;-74
2021/04/03 04:19:34;;;;;;;51.90;26.17;;;;;;;2.91;49.84;98468.92;114334;1206;103181;-73
2021/04/03 04:22:03;;;;;;;52.15;25.55;;;;;;;2.88;49.90;98463.83;114378;1206;103277;-71
2021/04/03 04:24:30;;;;;;;49.20;24.55;;;;;;;2.87;49.29;98467.38;114337;1206;103031;-73
2021/04/03 04:26:57;;;;;;;50.90;25.00;;;;;;;2.83;49.64;98463.20;114483;1206;103082;-73
2021/04/03 04:29:24;;;;;;;53.70;25.50;;;;;;;2.81;50.11;98457.18;114491;1206;103127;-73
2021/04/03 04:31:51;;;;;;;48.00;23.30;;;;;;;2.78;49.87;98458.20;114506;1206;103083;-74
2021/04/03 04:34:18;;;;;;;45.93;23.07;;;;;;;2.74;49.70;98466.29;114453;1206;103088;-74
2021/04/03 04:36:45;;;;;;;50.10;23.70;;;;;;;2.71;49.74;98469.06;114564;1205;103625;-72
2021/04/03 04:39:12;;;;;;;48.85;22.15;;;;;;;2.69;49.77;98469.16;114444;1206;103081;-73
2021/04/03 04:41:39;;;;;;;48.15;23.15;;;;;;;2.67;50.16;98461.34;114416;1206;103162;-73
2021/04/03 04:44:06;;;;;;;49.50;22.65;;;;;;;2.66;49.94;98466.69;114392;1205;103062;-73
2021/04/03 04:46:33;;;;;;;53.00;23.80;;;;;;;2.65;50.23;98465.82;114366;1206;103858;-73
2021/04/03 04:49:00;;;;;;;49.30;25.00;;;;;;;2.65;50.16;98457.94;114289;1206;103165;-73
2021/04/03 04:51:27;;;;;;;52.00;24.30;;;;;;;2.65;50.12;98465.82;114290;1206;103156;-73
2021/04/03 04:53:54;;;;;;;48.20;23.35;;;;;;;2.66;50.54;98471.94;114439;1206;103092;-72
2021/04/03 04:56:23;;;;;;;53.50;24.15;;;;;;;2.63;50.55;98474.71;114331;1206;103095;-72
2021/04/03 04:58:50;;;;;;;51.50;25.50;;;;;;;2.62;50.54;98476.50;114396;1206;103053;-72
2021/04/03 05:01:17;;;;;;;50.05;23.10;;;;;;;2.63;50.14;98472.95;114390;1206;103094;-72
2021/04/03 05:03:44;;;;;;;51.90;24.55;;;;;;;2.63;50.48;98472.95;114330;1206;103059;-72
2021/04/03 05:06:12;;;;;;;57.95;23.55;;;;;;;2.65;50.70;98476.32;114375;1206;103066;-72
2021/04/03 05:08:40;;;;;;;49.50;26.40;;;;;;;2.66;50.68;98483.27;114287;1205;101331;-72
2021/04/03 05:11:06;;;;;;;56.67;27.57;;;;;;;2.67;50.57;98478.89;114426;1206;103102;-72
2021/04/03 05:13:33;;;;;;;53.10;25.53;;;;;;;2.68;50.46;98483.22;114425;1206;103204;-74
2021/04/03 05:16:01;;;;;;;49.05;24.40;;;;;;;2.70;50.39;98486.62;114373;1206;103082;-73
2021/04/03 05:18:28;;;;;;;56.40;27.80;;;;;;;2.75;50.61;98487.23;114420;1206;103117;-73
2021/04/03 05:20:55;;;;;;;50.85;24.50;;;;;;;2.79;50.82;98482.67;114462;1206;103197;-72
2021/04/03 05:23:22;;;;;;;46.50;24.90;;;;;;;2.83;50.84;98489.47;114522;1206;103268;-72
2021/04/03 05:25:49;;;;;;;46.80;25.10;;;;;;;2.87;51.24;98485.77;114440;1207;103051;-72
2021/04/03 05:28:16;;;;;;;47.95;25.35;;;;;;;2.92;50.93;98485.52;114390;1206;103092;-72
2021/04/03 05:30:44;;;;;;;42.90;22.50;;;;;;;2.96;51.33;98480.05;114513;1206;103082;-72
2021/04/03 05:33:11;;;;;;;47.20;23.80;;;;;;;3.02;50.97;98493.81;114464;1206;103258;-73
2021/04/03 05:35:38;;;;;;;47.65;24.35;;;;;;;3.09;50.91;98495.17;114441;1206;103056;-74
2021/04/03 05:38:05;;;;;;;46.90;25.00;;;;;;;3.16;51.20;98496.56;114453;1205;103047;-74
2021/04/03 05:40:32;;;;;;;43.75;23.75;;;;;;;3.23;50.76;98502.37;114587;1206;103190;-73
2021/04/03 05:43:04;;;;;;;46.80;25.10;;;;;;;3.31;51.50;98504.59;114413;1206;103219;-71
2021/04/03 05:45:36;;;;;;;53.20;26.60;;;;;;;3.39;50.85;98503.25;114348;1206;103091;-72
2021/04/03 05:48:05;;;;;;;49.67;25.90;;;;;;;3.48;51.66;98508.97;114481;1206;103155;-72
2021/04/03 05:50:33;;;;;;;51.90;26.40;;;;;;;3.57;51.54;98516.38;114681;1205;103171;-73
2021/04/03 05:52:59;;;;;;;52.30;28.70;;;;;;;3.64;51.69;98525.64;114550;1205;103076;-72
2021/04/03 05:55:27;;;;;;;51.00;27.10;;;;;;;3.74;51.47;98520.73;114511;1206;103088;-73
2021/04/03 05:57:54;;;;;;;48.65;26.65;;;;;;;3.80;51.74;98528.30;114486;1206;103102;-70
2021/04/03 06:00:22;;;;;;;55.50;28.97;;;;;;;3.90;51.13;98535.68;114497;1206;103088;-71
2021/04/03 06:02:51;;;;;;;50.30;26.30;;;;;;;4.03;51.10;98539.36;114456;1206;103089;-73
2021/04/03 06:05:18;;;;;;;49.70;27.50;;;;;;;4.21;51.12;98531.40;114517;1206;103210;-72
2021/04/03 06:07:45;;;;;;;49.15;26.70;;;;;;;4.38;51.51;98531.29;114481;1206;103082;-73
2021/04/03 06:10:12;;;;;;;49.15;27.50;;;;;;;4.54;51.26;98539.17;114466;1206;103067;-72
2021/04/03 06:12:48;;;;;;;47.97;26.23;;;;;;;4.72;51.93;98542.55;114499;1206;103532;-72
2021/04/03 06:15:16;;;;;;;50.50;26.63;;;;;;;4.87;51.32;98538.21;114509;1205;103082;-71
2021/04/03 06:17:45;;;;;;;47.30;26.60;;;;;;;4.98;51.52;98539.34;114510;1205;103226;-72
2021/04/03 06:20:12;;;;;;;47.95;26.55;;;;;;;5.11;51.38;98536.84;114454;1206;103235;-73
2021/04/03 06:22:41;;;;;;;44.50;23.30;;;;;;;5.20;51.93;98545.08;114442;1206;103114;-72
2021/04/03 06:25:09;;;;;;;48.05;26.00;;;;;;;5.34;52.04;98527.56;114380;1206;103490;-71
2021/04/03 06:27:36;;;;;;;42.40;23.60;;;;;;;5.48;52.24;98540.78;114447;1206;103581;-70
2021/04/03 06:30:13;;;;;;;45.50;24.00;;;;;;;5.61;52.11;98546.16;114510;1206;103098;-72
2021/04/03 06:32:44;;;;;;;42.10;23.50;;;;;;;5.74;51.91;98548.06;114458;1206;103130;-76
2021/04/03 06:35:11;;;;;;;42.55;23.05;;;;;;;5.85;52.31;98564.09;114467;1206;103092;-80
2021/04/03 06:37:39;;;;;;;51.00;27.20;;;;;;;5.94;51.74;98549.47;114505;1206;103085;-79
2021/04/03 06:40:10;;;;;;;46.70;27.30;;;;;;;5.92;51.78;98546.08;114482;1206;103095;-72
2021/04/03 06:42:52;;;;;;;50.25;27.70;;;;;;;5.91;51.84;98547.84;114504;1206;103102;-74
2021/04/03 06:45:34;;;;;;;49.00;26.10;;;;;;;5.89;51.94;98547.13;114473;1205;103057;-73
2021/04/03 06:48:02;;;;;;;52.80;27.85;;;;;;;5.87;51.85;98556.06;114462;1206;103172;-72
2021/04/03 06:50:40;;;;;;;52.10;28.20;;;;;;;5.85;51.71;98558.81;114463;1206;103165;-69
2021/04/03 06:53:25;;;;;;;55.20;29.20;;;;;;;5.80;52.18;98555.61;114496;1206;103063;-75
2021/04/03 06:55:53;;;;;;;54.10;29.20;;;;;;;5.78;52.22;98554.84;114454;1206;103162;-68
2021/04/03 06:58:20;;;;;;;54.45;29.70;;;;;;;5.78;52.11;98554.84;114438;1206;103190;-69
2021/04/03 07:00:51;;;;;;;53.50;30.25;;;;;;;5.75;52.09;98555.87;114457;1206;103156;-70
2021/04/03 07:03:23;;;;;;;58.55;32.15;;;;;;;5.72;52.14;98556.05;114465;1206;103059;-69
2021/04/03 07:05:51;;;;;;;50.30;29.23;;;;;;;5.73;51.98;98563.03;114439;1207;103088;-70
2021/04/03 07:08:20;;;;;;;51.90;30.05;;;;;;;5.74;51.95;98551.53;114458;1205;103102;-70
2021/04/03 07:10:47;;;;;;;51.90;29.53;;;;;;;5.79;52.02;98560.02;114525;1205;103180;-71
2021/04/03 07:13:14;;;;;;;54.00;30.10;;;;;;;5.84;52.44;98553.61;114439;1206;103158;-71
2021/04/03 07:15:44;;;;;;;50.70;29.80;;;;;;;5.87;52.53;98554.30;114484;1206;103191;-71
2021/04/03 07:18:13;;;;;;;51.30;29.80;;;;;;;5.86;52.01;98559.64;114467;1205;103190;-69
2021/04/03 07:20:41;;;;;;;55.00;31.50;;;;;;;5.88;52.31;98563.91;114493;1206;103091;-69
2021/04/03 07:23:15;;;;;;;55.40;30.23;;;;;;;5.95;52.09;98551.17;114437;1206;104616;-70
2021/04/03 07:25:44;;;;;;;50.47;29.90;;;;;;;6.09;52.33;98556.48;114426;1206;103112;-69
2021/04/03 07:28:14;;;;;;;49.10;28.10;;;;;;;6.24;52.23;98557.30;114493;1206;103085;-68
2021/04/03 07:30:44;;;;;;;51.05;28.25;;;;;;;6.44;52.47;98563.09;114420;1206;103245;-68
2021/04/03 07:33:22;;;;;;;47.85;28.25;;;;;;;6.61;52.33;98562.02;114531;1206;103126;-69
2021/04/03 07:36:04;;;;;;;47.50;27.27;;;;;;;7.40;51.92;98563.92;114510;1206;103195;-68
2021/04/03 07:38:36;;;;;;;48.25;26.80;;;;;;;9.45;50.66;98557.31;114425;1206;103104;-69
2021/04/03 07:41:17;;;;;;;40.70;23.90;;;;;;;11.22;50.51;98559.33;114452;1205;103075;-70
2021/04/03 07:43:47;;;;;;;40.50;23.30;;;;;;;12.91;50.63;98550.95;114450;1206;103050;-70
2021/04/03 07:46:21;;;;;;;39.90;23.65;;;;;;;14.25;50.71;98549.32;114441;1206;103095;-71
2021/04/03 07:48:58;;;;;;;36.53;21.03;;;;;;;15.61;50.95;98551.16;114455;1206;103050;-70
2021/04/03 07:51:25;;;;;;;35.40;22.25;;;;;;;16.71;50.87;98541.64;114404;1206;103193;-70
2021/04/03 07:53:55;;;;;;;35.50;22.90;;;;;;;17.67;50.88;98536.69;114401;1206;103073;-71
2021/04/03 07:56:43;;;;;;;34.90;22.07;;;;;;;18.08;51.17;98535.76;114305;1206;103503;-70
2021/04/03 07:59:09;;;;;;;32.87;20.07;;;;;;;18.45;50.99;98532.42;114407;1206;103145;-70
2021/04/03 08:01:51;;;;;;;28.65;17.50;;;;;;;18.62;51.15;98544.97;114424;1206;103248;-68
2021/04/03 08:04:26;;;;;;;27.75;16.85;;;;;;;18.44;51.34;98540.66;114426;1206;103092;-71
2021/04/03 08:06:59;;;;;;;23.80;14.10;;;;;;;18.66;50.98;98539.03;114402;1206;103082;-69
2021/04/03 08:09:32;;;;;;;23.47;14.60;;;;;;;18.57;50.62;98546.33;114380;1206;103152;-70
2021/04/03 08:11:59;;;;;;;23.85;15.05;;;;;;;18.89;50.17;98541.77;114401;1206;103130;-71
2021/04/03 08:14:31;;;;;;;23.17;13.10;;;;;;;18.65;50.06;98539.23;114434;1206;103046;-71
2021/04/03 08:17:00;;;;;;;25.03;14.47;;;;;;;18.60;49.94;98540.59;114403;1206;103379;-71
2021/04/03 08:19:30;;;;;;;23.45;13.10;;;;;;;19.30;49.64;98542.52;114529;1206;103101;-69
2021/04/03 08:21:58;;;;;;;21.90;11.40;;;;;;;20.04;49.15;98546.41;114434;1206;103155;-72
2021/04/03 08:24:25;;;;;;;25.13;13.17;;;;;;;20.34;48.73;98544.54;114462;1205;103156;-69
2021/04/03 08:26:54;;;;;;;23.00;13.40;;;;;;;20.43;49.30;98542.56;114417;1206;103479;-70
2021/04/03 08:29:37;;;;;;;22.40;12.80;;;;;;;20.58;48.86;98544.41;114395;1206;103168;-71
2021/04/03 08:32:05;;;;;;;20.90;12.20;;;;;;;20.62;48.48;98546.53;114387;1206;103053;-71
2021/04/03 08:34:32;;;;;;;22.10;12.60;;;;;;;21.03;48.51;98549.71;114389;1206;103134;-72
2021/04/03 08:36:59;;;;;;;23.45;13.70;;;;;;;21.22;48.18;98553.64;114407;1206;103140;-70
2021/04/03 08:39:27;;;;;;;23.00;14.60;;;;;;;21.29;47.93;98541.02;114398;1206;103539;-74
2021/04/03 08:41:57;;;;;;;23.15;14.95;;;;;;;21.76;47.71;98540.60;114405;1205;103302;-70
2021/04/03 08:44:26;;;;;;;24.10;15.80;;;;;;;21.90;47.37;98541.53;114442;1206;103159;-71
2021/04/03 08:46:58;;;;;;;25.85;16.75;;;;;;;21.45;47.38;98548.03;114380;1206;103085;-72
2021/04/03 08:49:33;;;;;;;25.10;15.85;;;;;;;21.88;47.08;98541.70;114460;1206;103158;-74
2021/04/03 08:52:01;;;;;;;21.40;12.90;;;;;;;22.36;47.13;98542.81;114396;1206;103069;-77
2021/04/03 08:54:35;;;;;;;21.00;12.10;;;;;;;22.71;46.47;98538.20;114393;1206;103085;-74
2021/04/03 08:57:16;;;;;;;20.65;12.65;;;;;;;22.97;46.19;98536.59;113906;1205;103149;-75
2021/04/03 08:59:43;;;;;;;24.50;14.90;;;;;;;23.07;45.84;98533.47;114304;1206;103060;-76
2021/04/03 09:02:10;;;;;;;25.10;16.20;;;;;;;22.74;46.07;98539.66;114381;1206;103175;-76
2021/04/03 09:04:37;;;;;;;25.20;16.50;;;;;;;22.80;45.35;98527.19;114342;1206;103057;-77
2021/04/03 09:07:04;;;;;;;27.85;16.70;;;;;;;22.97;45.53;98527.64;114344;1206;103504;-77
2021/04/03 09:09:31;;;;;;;27.90;18.10;;;;;;;22.95;45.07;98527.83;114379;1206;103610;-75
2021/04/03 09:12:12;;;;;;;24.70;16.10;;;;;;;22.99;43.98;98526.38;114363;1206;103206;-76
2021/04/03 09:14:53;;;;;;;21.60;13.90;;;;;;;22.73;43.95;98530.70;114325;1206;103153;-77
2021/04/03 09:17:25;;;;;;;21.60;13.10;;;;;;;21.79;43.70;98532.91;114395;1206;104705;-76
2021/04/03 09:20:03;;;;;;;23.40;14.70;;;;;;;21.78;43.44;98528.53;114234;1206;103168;-77
2021/04/03 09:22:37;;;;;;;22.30;13.30;;;;;;;21.20;43.53;98532.19;114364;1206;103143;-78
2021/04/03 09:25:28;;;;;;;22.80;13.90;;;;;;;20.23;43.26;98536.91;114359;1206;103099;-77
2021/04/03 09:28:01;;;;;;;24.25;14.75;;;;;;;19.26;43.14;98536.66;114399;1206;103079;-81
2021/04/03 09:30:35;;;;;;;25.80;14.37;;;;;;;19.44;42.89;98525.55;114353;1206;103107;-80
2021/04/03 09:33:25;;;;;;;23.90;15.00;;;;;;;19.36;42.55;98528.31;114299;1206;103191;-75
2021/04/03 09:36:06;;;;;;;26.55;15.35;;;;;;;18.54;42.56;98529.70;114194;1206;103114;-73
2021/04/03 09:38:34;;;;;;;26.05;15.70;;;;;;;17.80;42.12;98541.53;114165;1205;103181;-75
2021/04/03 09:41:01;;;;;;;25.50;14.90;;;;;;;17.87;41.71;98534.45;114322;1205;103082;-76
2021/04/03 09:43:42;;;;;;;24.97;15.40;;;;;;;17.20;41.63;98538.20;114199;1206;103155;-78
2021/04/03 09:46:10;;;;;;;25.37;14.77;;;;;;;16.59;41.69;98543.80;114228;1206;103073;-79
2021/04/03 09:48:43;;;;;;;23.70;13.70;;;;;;;15.95;41.09;98550.40;114128;1206;103048;-75
2021/04/03 09:51:10;;;;;;;26.40;14.90;;;;;;;15.44;41.12;98547.52;114672;1206;103105;-77
2021/04/03 09:53:38;;;;;;;25.10;14.40;;;;;;;14.90;40.74;98540.36;113973;1206;103102;-81
2021/04/03 09:56:06;;;;;;;29.25;15.80;;;;;;;14.41;40.34;98543.32;114678;1206;103182;-78
2021/04/03 09:58:33;;;;;;;29.40;16.90;;;;;;;13.89;40.35;98544.66;114370;1206;103088;-72
2021/04/03 10:01:04;;;;;;;28.80;15.40;;;;;;;13.67;40.29;98546.68;114428;1206;103133;-74
2021/04/03 10:03:32;;;;;;;23.40;11.80;;;;;;;13.37;39.84;98548.54;114364;1206;103142;-75
2021/04/03 10:06:01;;;;;;;28.73;15.57;;;;;;;12.83;39.79;98550.80;114430;1206;103166;-76
2021/04/03 10:08:29;;;;;;;27.40;15.55;;;;;;;12.63;39.92;98548.08;114357;1206;103168;-74
2021/04/03 10:10:56;;;;;;;29.15;16.15;;;;;;;12.53;39.99;98544.58;114387;1206;103289;-80
2021/04/03 10:13:23;;;;;;;24.67;13.53;;;;;;;12.45;39.71;98555.91;114472;1206;103197;-76
2021/04/03 10:15:51;;;;;;;30.80;15.70;;;;;;;12.29;39.68;98555.59;114319;1206;103152;-77
2021/04/03 10:18:18;;;;;;;29.00;15.65;;;;;;;12.24;39.59;98552.48;114426;1206;103053;-79
2021/04/03 10:20:47;;;;;;;29.05;15.35;;;;;;;12.17;39.71;98555.69;114476;1206;103257;-77
2021/04/03 10:23:13;;;;;;;27.15;14.95;;;;;;;12.02;39.55;98551.72;114453;1206;103105;-75
2021/04/03 10:25:41;;;;;;;28.30;15.40;;;;;;;11.81;39.47;98560.55;114586;1205;103047;-83
2021/04/03 10:28:10;;;;;;;29.17;15.47;;;;;;;11.70;39.47;98557.95;114602;1206;103494;-77
2021/04/03 10:30:37;;;;;;;27.17;15.07;;;;;;;11.59;39.32;98559.73;114453;1206;103069;-90
2021/04/03 10:33:05;;;;;;;28.80;14.80;;;;;;;11.50;39.35;98557.84;114639;1206;103156;-84
2021/04/03 10:35:32;;;;;;;29.85;16.35;;;;;;;11.36;39.09;98563.48;114550;1206;103129;-86
2021/04/03 10:37:59;;;;;;;29.20;15.60;;;;;;;11.18;38.92;98558.75;114593;1206;103159;-79
2021/04/03 10:40:27;;;;;;;27.10;15.25;;;;;;;11.08;39.26;98558.65;114444;1206;103204;-74
2021/04/03 10:42:54;;;;;;;30.83;16.60;;;;;;;11.07;39.13;98566.77;114467;1206;103076;-82
2021/04/03 10:45:21;;;;;;;29.80;15.60;;;;;;;11.13;39.20;98559.11;114580;1206;103213;-75
2021/04/03 10:47:48;;;;;;;34.05;18.43;;;;;;;11.19;39.18;98564.91;114395;1206;103084;-74
2021/04/03 10:50:15;;;;;;;34.20;18.35;;;;;;;11.09;39.21;98563.00;114442;1206;103137;-74
2021/04/03 10:52:42;;;;;;;32.30;18.60;;;;;;;11.07;39.31;98572.09;114416;1206;103152;-72
2021/04/03 10:55:11;;;;;;;32.35;17.90;;;;;;;11.02;39.20;98567.14;114497;1206;103076;-72
2021/04/03 10:57:38;;;;;;;31.80;17.20;;;;;;;10.87;39.05;98577.23;114472;1205;103506;-72
2021/04/03 11:00:06;;;;;;;31.85;16.65;;;;;;;10.72;39.16;98577.53;114405;1204;103088;-73
2021/04/03 11:02:33;;;;;;;34.53;18.37;;;;;;;10.64;38.96;98584.42;114417;1206;103070;-73
2021/04/03 11:05:04;;;;;;;29.85;16.15;;;;;;;10.55;39.27;98581.56;114462;1205;103158;-74
2021/04/03 11:07:31;;;;;;;32.60;17.50;;;;;;;10.49;38.92;98576.73;114480;1206;103143;-72
2021/04/03 11:09:58;;;;;;;34.30;18.80;;;;;;;10.49;39.40;98582.05;114436;1206;103131;-74
2021/04/03 11:12:25;;;;;;;34.30;18.80;;;;;;;10.64;39.25;98585.28;114356;1206;103172;-73
2021/04/03 11:14:52;;;;;;;34.80;18.17;;;;;;;10.74;39.06;98576.56;114372;1206;103085;-74
2021/04/03 11:17:19;;;;;;;35.33;19.43;;;;;;;10.70;39.17;98579.47;114383;1206;103079;-71
2021/04/03 11:19:46;;;;;;;32.00;18.00;;;;;;;10.72;39.21;98569.55;114514;1205;103086;-75